Mart, Texas
Current Conditions -  °F | °C
As of 10:53 PM on Friday 24 Oct 2014 (Local Time) from KCNW Reporting Station
Clear Clear  
Wind Chill: 66°   Ceiling: Unl
Heat Index: 66°   Visibility: 10mi
Dew Point: 59°   Wind: 3mph
Humidity: 78%   Direction: 170°S
Pressure: 30.13"   Gusts: NA
Location:  31.54°N, 96.83°W
Report Text: KCNW 250353Z 17003KT 10SM SKC 19/15 A3013
Loading
Personal Weather Stations






























Interactive Weather Map
Tropical Storm Tracking
New forecast layout! Learn more

10-Day Weather Forecast

Advertisements
Track Severe Weather on mobile